Ds Blue Wave — A8YK2 — position and weather

sailwx.info

Track history (hours):
 
Tides and Currents Weather Stations Pressure Air Temp Water Temp Dewpoint Dewpoint Depression Visibility Wind Speed Wind Dir Waves Ship Positions

Ds Blue Wave

Last reported at 2017-Feb-24 04:29 UTC. Time now 2017-Feb-25 07:21 UTC.
Position N 31°23' E 121°35'.

Length 129 m; draft 6.3 m.

Type: Cargo ship. MMSI: 636092200.

Date/timePositionNaut miles runAvg speedWind from/ knotsBaromVisibWave heightAir tempDewpointWater temp
2017-Feb-24 04:29N 31°23' E 121°35'0 0.0
2017-Feb-24 02:11N 31°23' E 121°35'  
2017-Feb-21 18:30N 33°42' E 132°09'1314.1
2017-Feb-21 17:33N 33°47' E 132°24'1414.0
2017-Feb-21 16:33N 33°55' E 132°38'12413.3
2017-Feb-21 07:16N 34°37' E 134°59'1013.3
2017-Feb-21 06:34N 34°36' E 135°10'7 6.6
2017-Feb-21 05:31N 34°41' E 135°15'0 0.0
2017-Feb-21 04:25N 34°41' E 135°15'0 0.0
2017-Feb-21 03:31N 34°41' E 135°15'0 0.0
2017-Feb-21 02:31N 34°41' E 135°15'0 0.0
2017-Feb-21 01:31N 34°41' E 135°15'0 0.0
2017-Feb-21 00:25N 34°41' E 135°15'0 0.2
2017-Feb-20 23:33N 34°41' E 135°15'3 2.2
2017-Feb-20 22:22N 34°38' E 135°17'0 0.0
2017-Feb-20 21:10N 34°38' E 135°17'0 0.0
2017-Feb-20 20:22N 34°38' E 135°17'0 0.0
2017-Feb-20 19:28N 34°38' E 135°17'0 0.0
2017-Feb-20 18:28N 34°38' E 135°17'0 0.0
2017-Feb-20 17:28N 34°38' E 135°17'0 0.0
2017-Feb-20 16:16N 34°38' E 135°17'0 0.0
2017-Feb-20 15:10N 34°38' E 135°17'0 0.0
2017-Feb-20 14:28N 34°38' E 135°17'0 0.0
2017-Feb-20 13:28N 34°38' E 135°17'0 0.0
2017-Feb-20 12:28N 34°38' E 135°17'0 0.0
2017-Feb-20 10:28N 34°38' E 135°17'0 0.0
2017-Feb-20 09:22N 34°39' E 135°17'4 4.6
2017-Feb-20 08:33N 34°39' E 135°22'2 0.8
2017-Feb-20 06:12N 34°39' E 135°24'0 0.0
2017-Feb-20 04:12N 34°39' E 135°24'0 0.0
2017-Feb-20 02:24N 34°39' E 135°24'0 0.0
2017-Feb-20 00:30N 34°39' E 135°24'0 0.0
2017-Feb-19 23:24N 34°39' E 135°24'0 0.0
2017-Feb-19 22:33N 34°39' E 135°24'4 3.7
2017-Feb-19 21:29N 34°36' E 135°20'9 9.7
2017-Feb-19 20:34N 34°35' E 135°09'12710.6
2017-Feb-19 08:34N 33°57' E 132°43'1211.6
2017-Feb-19 07:32N 33°49' E 132°32'54411.2
2017-Feb-17 07:07N 31°02' E 122°19'610.7
2017-Feb-17 06:33N 31°03' E 122°12'1111.5
2017-Feb-17 05:34N 31°06' E 121°59'1313.2
2017-Feb-17 04:34N 31°14' E 121°47'1312.6
2017-Feb-17 03:33N 31°22' E 121°36'1 0.6
2017-Feb-17 02:25N 31°22' E 121°35'0 0.0
2017-Feb-17 01:31N 31°22' E 121°35'0 0.0
2017-Feb-17 00:31N 31°22' E 121°35'0 0.0
2017-Feb-16 23:31N 31°22' E 121°35'0 0.0
2017-Feb-16 22:31N 31°22' E 121°35'0 0.0
2017-Feb-16 21:31N 31°22' E 121°35'0 0.0
2017-Feb-16 20:31N 31°22' E 121°35'0 0.0
2017-Feb-16 19:25N 31°22' E 121°35'0 0.0
2017-Feb-16 17:31N 31°22' E 121°35'0 0.0
2017-Feb-16 16:31N 31°22' E 121°35'0 0.0
2017-Feb-16 15:31N 31°22' E 121°35'0 0.0
2017-Feb-16 14:28N 31°22' E 121°35'0 0.0
2017-Feb-16 13:31N 31°22' E 121°35'0 0.0
2017-Feb-16 12:19N 31°22' E 121°35'3 3.3
2017-Feb-16 11:33N 31°22' E 121°38'1010.1
2017-Feb-16 10:34N 31°17' E 121°48'1414.1
2017-Feb-16 09:33N 31°14' E 122°04'53212.5
2017-Feb-14 15:09N 33°42' E 132°10'914.1
2017-Feb-14 14:31N 33°45' E 132°20'1313.6
2017-Feb-14 13:33N 33°52' E 132°34'  
Track history (hours):
 
Tides and Currents Weather Stations Pressure Air Temp Water Temp Dewpoint Dewpoint Depression Visibility Wind Speed Wind Dir Waves Ship Positions

Ds Blue Wave

Last reported at 2017-Feb-24 04:29 UTC. Time now 2017-Feb-25 07:21 UTC.
Position N 31°23' E 121°35'.

Length 129 m; draft 6.3 m.

Type: Cargo ship. MMSI: 636092200.

Date/timePositionNaut miles runAvg speedWind from/ knotsBaromVisibWave heightAir tempDewpointWater temp
2017-Feb-24 04:29N 31°23' E 121°35'0 0.0
2017-Feb-24 02:11N 31°23' E 121°35'  
2017-Feb-21 18:30N 33°42' E 132°09'1314.1
2017-Feb-21 17:33N 33°47' E 132°24'1414.0
2017-Feb-21 16:33N 33°55' E 132°38'12413.3
2017-Feb-21 07:16N 34°37' E 134°59'1013.3
2017-Feb-21 06:34N 34°36' E 135°10'7 6.6
2017-Feb-21 05:31N 34°41' E 135°15'0 0.0
2017-Feb-21 04:25N 34°41' E 135°15'0 0.0
2017-Feb-21 03:31N 34°41' E 135°15'0 0.0
2017-Feb-21 02:31N 34°41' E 135°15'0 0.0
2017-Feb-21 01:31N 34°41' E 135°15'0 0.0
2017-Feb-21 00:25N 34°41' E 135°15'0 0.2
2017-Feb-20 23:33N 34°41' E 135°15'3 2.2
2017-Feb-20 22:22N 34°38' E 135°17'0 0.0
2017-Feb-20 21:10N 34°38' E 135°17'0 0.0
2017-Feb-20 20:22N 34°38' E 135°17'0 0.0
2017-Feb-20 19:28N 34°38' E 135°17'0 0.0
2017-Feb-20 18:28N 34°38' E 135°17'0 0.0
2017-Feb-20 17:28N 34°38' E 135°17'0 0.0
2017-Feb-20 16:16N 34°38' E 135°17'0 0.0
2017-Feb-20 15:10N 34°38' E 135°17'0 0.0
2017-Feb-20 14:28N 34°38' E 135°17'0 0.0
2017-Feb-20 13:28N 34°38' E 135°17'0 0.0
2017-Feb-20 12:28N 34°38' E 135°17'0 0.0
2017-Feb-20 10:28N 34°38' E 135°17'0 0.0
2017-Feb-20 09:22N 34°39' E 135°17'4 4.6
2017-Feb-20 08:33N 34°39' E 135°22'2 0.8
2017-Feb-20 06:12N 34°39' E 135°24'0 0.0
2017-Feb-20 04:12N 34°39' E 135°24'0 0.0
2017-Feb-20 02:24N 34°39' E 135°24'0 0.0
2017-Feb-20 00:30N 34°39' E 135°24'0 0.0
2017-Feb-19 23:24N 34°39' E 135°24'0 0.0
2017-Feb-19 22:33N 34°39' E 135°24'4 3.7
2017-Feb-19 21:29N 34°36' E 135°20'9 9.7
2017-Feb-19 20:34N 34°35' E 135°09'12710.6
2017-Feb-19 08:34N 33°57' E 132°43'1211.6
2017-Feb-19 07:32N 33°49' E 132°32'54411.2
2017-Feb-17 07:07N 31°02' E 122°19'610.7
2017-Feb-17 06:33N 31°03' E 122°12'1111.5
2017-Feb-17 05:34N 31°06' E 121°59'1313.2
2017-Feb-17 04:34N 31°14' E 121°47'1312.6
2017-Feb-17 03:33N 31°22' E 121°36'1 0.6
2017-Feb-17 02:25N 31°22' E 121°35'0 0.0
2017-Feb-17 01:31N 31°22' E 121°35'0 0.0
2017-Feb-17 00:31N 31°22' E 121°35'0 0.0
2017-Feb-16 23:31N 31°22' E 121°35'0 0.0
2017-Feb-16 22:31N 31°22' E 121°35'0 0.0
2017-Feb-16 21:31N 31°22' E 121°35'0 0.0
2017-Feb-16 20:31N 31°22' E 121°35'0 0.0
2017-Feb-16 19:25N 31°22' E 121°35'0 0.0
2017-Feb-16 17:31N 31°22' E 121°35'0 0.0
2017-Feb-16 16:31N 31°22' E 121°35'0 0.0
2017-Feb-16 15:31N 31°22' E 121°35'0 0.0
2017-Feb-16 14:28N 31°22' E 121°35'0 0.0
2017-Feb-16 13:31N 31°22' E 121°35'0 0.0
2017-Feb-16 12:19N 31°22' E 121°35'3 3.3
2017-Feb-16 11:33N 31°22' E 121°38'1010.1
2017-Feb-16 10:34N 31°17' E 121°48'1414.1
2017-Feb-16 09:33N 31°14' E 122°04'53212.5
2017-Feb-14 15:09N 33°42' E 132°10'914.1
2017-Feb-14 14:31N 33°45' E 132°20'1313.6
2017-Feb-14 13:33N 33°52' E 132°34'  

Dump ship's entire track history